createdAt,value
2022-08-28T00:00:20.328Z,17.79
2022-08-28T00:02:47.390Z,17.74
2022-08-28T00:05:16.974Z,17.73
2022-08-28T00:07:47.646Z,17.70
2022-08-28T00:10:16.934Z,17.69
2022-08-28T00:12:44.633Z,17.70
2022-08-28T00:15:15.999Z,17.70
2022-08-28T00:17:43.232Z,17.69
2022-08-28T00:20:11.489Z,17.77
2022-08-28T00:22:38.967Z,17.84
2022-08-28T00:25:07.180Z,17.87
2022-08-28T00:27:52.779Z,17.79
2022-08-28T00:30:34.515Z,17.77
2022-08-28T00:33:11.932Z,17.75
2022-08-28T00:35:41.052Z,17.77
2022-08-28T00:38:09.459Z,17.76
2022-08-28T00:40:37.250Z,17.73
2022-08-28T00:43:06.824Z,17.68
2022-08-28T00:45:39.305Z,17.58
2022-08-28T00:48:06.600Z,17.52
2022-08-28T00:51:00.098Z,17.50
2022-08-28T00:53:32.677Z,17.53
2022-08-28T00:56:00.662Z,17.55
2022-08-28T00:58:27.427Z,17.57
2022-08-28T01:00:54.113Z,17.58
2022-08-28T01:03:20.831Z,17.53
2022-08-28T01:05:52.368Z,17.54
2022-08-28T01:08:19.280Z,17.55
2022-08-28T01:10:49.737Z,17.55
2022-08-28T01:13:18.209Z,17.58
2022-08-28T01:15:45.559Z,17.60
2022-08-28T01:18:15.949Z,17.59
2022-08-28T01:20:47.953Z,17.62
2022-08-28T01:23:38.841Z,17.61
2022-08-28T01:26:07.596Z,17.60
2022-08-28T01:28:38.814Z,17.73
2022-08-28T01:31:05.603Z,17.78
2022-08-28T01:33:32.352Z,17.82
2022-08-28T01:35:59.412Z,17.77
2022-08-28T01:38:26.781Z,17.74
2022-08-28T01:40:53.946Z,17.70
2022-08-28T01:43:23.658Z,17.69
2022-08-28T01:45:57.300Z,17.72
2022-08-28T01:48:26.774Z,17.73
2022-08-28T01:50:53.595Z,17.78
2022-08-28T01:53:24.919Z,17.79
2022-08-28T01:55:53.307Z,17.83
2022-08-28T01:58:20.960Z,17.85
2022-08-28T02:00:48.123Z,17.86
2022-08-28T02:03:15.295Z,17.86
2022-08-28T02:05:43.166Z,17.90
2022-08-28T02:08:10.103Z,17.93
2022-08-28T02:10:38.663Z,17.92
2022-08-28T02:13:06.574Z,17.93
2022-08-28T02:15:35.153Z,17.92
2022-08-28T02:18:02.182Z,17.85
2022-08-28T02:20:29.851Z,17.71
2022-08-28T02:22:58.033Z,17.70
2022-08-28T02:25:25.170Z,17.75
2022-08-28T02:27:51.846Z,17.77
2022-08-28T02:30:18.893Z,17.82
2022-08-28T02:32:46.338Z,17.79
2022-08-28T02:35:16.042Z,17.79
2022-08-28T02:37:44.404Z,17.74
2022-08-28T02:40:14.414Z,17.71
2022-08-28T02:42:42.199Z,17.74
2022-08-28T02:45:11.908Z,17.73
2022-08-28T02:47:40.124Z,17.74
2022-08-28T02:50:08.194Z,17.84
2022-08-28T02:52:35.775Z,17.93
2022-08-28T02:55:02.517Z,17.95
2022-08-28T02:57:30.045Z,17.91
2022-08-28T02:59:56.752Z,17.85
2022-08-28T03:02:24.022Z,17.88
2022-08-28T03:04:52.693Z,17.89
2022-08-28T03:07:19.940Z,17.95
2022-08-28T03:09:46.669Z,17.92
2022-08-28T03:12:13.484Z,18.01
2022-08-28T03:14:40.267Z,17.94
2022-08-28T03:17:08.088Z,17.98
2022-08-28T03:19:35.160Z,18.04
2022-08-28T03:22:01.836Z,18.05
2022-08-28T03:24:28.571Z,18.03
2022-08-28T03:26:55.271Z,17.95
2022-08-28T03:29:21.991Z,17.93
2022-08-28T03:31:48.654Z,18.01
2022-08-28T03:34:15.324Z,17.92
2022-08-28T03:36:42.021Z,17.98
2022-08-28T03:39:08.702Z,17.97
2022-08-28T03:41:35.452Z,17.99
2022-08-28T03:44:02.773Z,17.96
2022-08-28T03:46:34.526Z,18.01
2022-08-28T03:49:03.770Z,17.98
2022-08-28T03:51:32.827Z,18.04
2022-08-28T03:54:00.943Z,17.93
2022-08-28T03:56:29.958Z,17.89
2022-08-28T03:58:58.755Z,18.05
2022-08-28T04:01:26.001Z,18.06
2022-08-28T04:03:52.808Z,18.01
2022-08-28T04:06:20.330Z,18.09
2022-08-28T04:08:47.789Z,18.06
2022-08-28T04:11:14.907Z,18.13
2022-08-28T04:13:42.169Z,18.10
2022-08-28T04:16:11.599Z,18.09
2022-08-28T04:18:40.180Z,18.16
2022-08-28T04:21:12.572Z,18.08
2022-08-28T04:23:39.942Z,18.02
2022-08-28T04:26:10.983Z,18.08
2022-08-28T04:28:37.729Z,18.12
2022-08-28T04:31:04.891Z,18.05
2022-08-28T04:33:31.532Z,18.06
2022-08-28T04:36:02.708Z,18.13
2022-08-28T04:38:29.801Z,18.17
2022-08-28T04:40:56.451Z,18.18
2022-08-28T04:43:25.683Z,18.11
2022-08-28T04:45:52.515Z,18.18
2022-08-28T04:48:19.524Z,18.23
2022-08-28T04:50:48.636Z,18.21
2022-08-28T04:53:17.384Z,18.16
2022-08-28T04:55:54.052Z,18.14
2022-08-28T04:58:24.281Z,18.20
2022-08-28T05:00:52.810Z,18.23
2022-08-28T05:03:19.709Z,18.22
2022-08-28T05:05:52.378Z,18.09
2022-08-28T05:08:21.104Z,18.15
2022-08-28T05:10:48.135Z,18.24
2022-08-28T05:13:15.721Z,18.27
2022-08-28T05:15:44.703Z,18.34
2022-08-28T05:18:15.627Z,18.32
2022-08-28T05:20:44.722Z,18.41
2022-08-28T05:23:11.984Z,18.42
2022-08-28T05:25:41.021Z,18.40
2022-08-28T05:28:09.892Z,18.36
2022-08-28T05:30:40.288Z,18.44
2022-08-28T05:33:08.166Z,18.46
2022-08-28T05:35:37.580Z,18.50
2022-08-28T05:38:05.072Z,18.47
2022-08-28T05:40:32.144Z,18.49
2022-08-28T05:42:58.899Z,18.63
2022-08-28T05:45:25.840Z,18.71
2022-08-28T05:47:52.839Z,18.69
2022-08-28T05:50:19.933Z,18.71
2022-08-28T05:52:47.506Z,18.73
2022-08-28T05:55:14.685Z,18.90
2022-08-28T05:57:41.869Z,18.99
2022-08-28T06:00:13.762Z,18.74
2022-08-28T06:02:42.101Z,18.89
2022-08-28T06:05:12.988Z,19.09
2022-08-28T06:07:41.148Z,19.14
2022-08-28T06:10:10.563Z,19.00
2022-08-28T06:12:37.757Z,19.21
2022-08-28T06:15:06.105Z,18.95
2022-08-28T06:17:32.860Z,18.96
2022-08-28T06:19:59.584Z,19.01
2022-08-28T06:22:26.510Z,19.05
2022-08-28T06:24:54.218Z,19.22
2022-08-28T06:27:21.071Z,19.22
2022-08-28T06:29:47.842Z,19.44
2022-08-28T06:32:14.593Z,19.35
2022-08-28T06:34:41.801Z,19.33
2022-08-28T06:37:09.911Z,19.39
2022-08-28T06:39:36.689Z,19.51
2022-08-28T06:42:05.563Z,19.60
2022-08-28T06:44:32.539Z,19.54
2022-08-28T06:47:00.454Z,19.52
2022-08-28T06:49:30.018Z,19.32
2022-08-28T06:52:02.464Z,19.46
2022-08-28T06:54:31.142Z,19.54
2022-08-28T06:56:57.890Z,19.79
2022-08-28T06:59:24.541Z,20.07
2022-08-28T07:01:53.643Z,20.03
2022-08-28T07:04:20.472Z,19.87
2022-08-28T07:06:54.259Z,20.00
2022-08-28T07:09:22.124Z,20.40
2022-08-28T07:11:48.811Z,20.54
2022-08-28T07:14:16.214Z,20.57
2022-08-28T07:16:44.654Z,20.70
2022-08-28T07:19:12.178Z,20.48
2022-08-28T07:21:43.880Z,20.74
2022-08-28T07:24:13.515Z,20.85
2022-08-28T07:26:41.588Z,20.87
2022-08-28T07:29:11.042Z,20.86
2022-08-28T07:31:41.443Z,20.65
2022-08-28T07:34:10.123Z,20.78
2022-08-28T07:36:37.573Z,20.73
2022-08-28T07:39:05.494Z,20.81
2022-08-28T07:41:33.760Z,20.98
2022-08-28T07:44:19.101Z,21.11
2022-08-28T07:46:45.792Z,21.32
2022-08-28T07:49:19.719Z,21.46
2022-08-28T07:51:46.712Z,21.43
2022-08-28T07:54:16.884Z,21.41
2022-08-28T07:56:45.979Z,21.33
2022-08-28T07:59:13.965Z,21.36
2022-08-28T08:01:46.598Z,21.52
2022-08-28T08:04:17.778Z,21.60
2022-08-28T08:06:45.703Z,21.54
2022-08-28T08:09:15.702Z,21.56
2022-08-28T08:11:43.007Z,21.51
2022-08-28T08:14:10.973Z,21.26
2022-08-28T08:16:40.789Z,21.21
2022-08-28T08:19:14.228Z,21.54
2022-08-28T08:21:46.140Z,21.99
2022-08-28T08:24:19.611Z,22.21
2022-08-28T08:26:59.402Z,22.41
2022-08-28T08:29:29.785Z,22.04
2022-08-28T08:32:02.284Z,22.10
2022-08-28T08:34:28.930Z,21.72
2022-08-28T08:36:55.686Z,21.99
2022-08-28T08:39:22.421Z,22.23
2022-08-28T08:41:52.195Z,22.44
2022-08-28T08:44:37.353Z,22.74
2022-08-28T08:47:15.877Z,22.49
2022-08-28T08:49:57.893Z,22.47
2022-08-28T08:52:33.488Z,22.50
2022-08-28T08:55:06.393Z,22.57
2022-08-28T08:57:35.374Z,23.00
2022-08-28T09:00:05.416Z,22.99
2022-08-28T09:02:34.624Z,22.97
2022-08-28T09:05:12.447Z,23.21
2022-08-28T09:07:52.659Z,22.91
2022-08-28T09:10:19.935Z,23.17
2022-08-28T09:13:01.473Z,23.00
2022-08-28T09:15:39.591Z,23.05
2022-08-28T09:18:22.502Z,23.49
2022-08-28T09:20:50.905Z,23.43
2022-08-28T09:23:17.772Z,23.58
2022-08-28T09:25:44.551Z,23.93
2022-08-28T09:28:18.150Z,23.95
2022-08-28T09:30:53.310Z,23.85
2022-08-28T09:33:40.091Z,24.58
2022-08-28T09:36:27.117Z,24.87
2022-08-28T09:39:21.266Z,23.81
2022-08-28T09:42:11.370Z,23.94
2022-08-28T09:45:16.364Z,23.40
2022-08-28T09:47:47.003Z,23.14
2022-08-28T09:50:29.149Z,22.58
2022-08-28T09:53:14.907Z,22.61
2022-08-28T09:56:11.644Z,22.40
2022-08-28T09:59:01.353Z,23.04
2022-08-28T10:01:46.460Z,23.13
2022-08-28T10:04:16.836Z,23.05
2022-08-28T10:06:52.101Z,22.91
2022-08-28T10:09:29.430Z,23.00
2022-08-28T10:12:10.779Z,22.84
2022-08-28T10:15:02.340Z,22.42
2022-08-28T10:17:29.259Z,22.98
2022-08-28T10:20:20.694Z,23.80
2022-08-28T10:22:57.168Z,24.12
2022-08-28T10:25:33.642Z,24.12
2022-08-28T10:28:32.582Z,24.12
2022-08-28T10:31:07.294Z,23.97
2022-08-28T10:33:37.162Z,23.96
2022-08-28T10:36:05.681Z,23.80
2022-08-28T10:38:38.128Z,23.20
2022-08-28T10:41:17.433Z,23.26
2022-08-28T10:43:51.223Z,22.99
2022-08-28T10:46:30.607Z,22.70
2022-08-28T10:49:04.414Z,22.49
2022-08-28T10:51:46.131Z,22.70
2022-08-28T10:54:23.635Z,22.75
2022-08-28T10:56:56.309Z,22.96
2022-08-28T10:59:24.103Z,22.72
2022-08-28T11:01:51.853Z,22.78
2022-08-28T11:04:25.671Z,22.82
2022-08-28T11:07:05.840Z,23.09
2022-08-28T11:09:46.189Z,23.03
2022-08-28T11:12:15.828Z,23.46
2022-08-28T11:14:48.828Z,23.87
2022-08-28T11:17:21.791Z,24.22
2022-08-28T11:20:17.683Z,24.98
2022-08-28T11:23:11.480Z,25.34
2022-08-28T11:25:41.184Z,25.13
2022-08-28T11:28:11.571Z,24.44
2022-08-28T11:30:38.588Z,24.80
2022-08-28T11:33:26.613Z,24.36
2022-08-28T11:35:53.585Z,24.00
2022-08-28T11:38:43.329Z,23.53
2022-08-28T11:41:24.361Z,23.61
2022-08-28T11:44:09.472Z,23.76
2022-08-28T11:46:45.651Z,23.98
2022-08-28T11:49:26.196Z,24.05
2022-08-28T11:52:03.923Z,24.55
2022-08-28T11:54:46.324Z,24.82
2022-08-28T11:57:12.911Z,25.13
2022-08-28T12:00:03.998Z,24.88
2022-08-28T12:02:40.450Z,24.64
2022-08-28T12:05:30.569Z,24.08
2022-08-28T12:07:58.927Z,23.94
2022-08-28T12:10:29.674Z,23.50
2022-08-28T12:13:00.514Z,23.28
2022-08-28T12:15:27.359Z,23.24
2022-08-28T12:18:06.893Z,23.55
2022-08-28T12:20:52.226Z,23.61
2022-08-28T12:23:43.366Z,23.91
2022-08-28T12:26:19.277Z,24.18
2022-08-28T12:28:49.480Z,24.43
2022-08-28T12:31:52.720Z,24.46
2022-08-28T12:34:37.185Z,23.73
2022-08-28T12:37:06.047Z,23.52
2022-08-28T12:39:33.743Z,23.74
2022-08-28T12:42:02.736Z,24.16
2022-08-28T12:44:31.386Z,24.17
2022-08-28T12:46:58.404Z,24.27
2022-08-28T12:49:34.247Z,24.40
2022-08-28T12:52:18.070Z,24.82
2022-08-28T12:54:45.866Z,25.32
2022-08-28T12:57:15.887Z,25.74
2022-08-28T12:59:45.390Z,25.33
2022-08-28T13:02:12.261Z,24.86
2022-08-28T13:04:58.791Z,24.64
2022-08-28T13:07:35.053Z,24.18
2022-08-28T13:10:06.847Z,23.95
2022-08-28T13:12:54.332Z,23.65
2022-08-28T13:15:44.168Z,23.85
2022-08-28T13:18:11.174Z,23.86
2022-08-28T13:20:39.127Z,23.84
2022-08-28T13:23:05.942Z,23.88
2022-08-28T13:25:35.855Z,23.93
2022-08-28T13:28:13.881Z,24.14
2022-08-28T13:30:45.753Z,24.09
2022-08-28T13:33:24.065Z,24.00
2022-08-28T13:35:51.872Z,24.33
2022-08-28T13:38:20.602Z,24.67
2022-08-28T13:40:59.747Z,24.63
2022-08-28T13:43:29.741Z,24.79
2022-08-28T13:45:56.623Z,24.48
2022-08-28T13:48:27.435Z,24.30
2022-08-28T13:51:03.128Z,24.36
2022-08-28T13:53:31.995Z,24.97
2022-08-28T13:56:00.320Z,25.14
2022-08-28T13:58:28.330Z,25.21
2022-08-28T14:00:55.144Z,25.34
2022-08-28T14:03:38.441Z,25.16
2022-08-28T14:06:14.346Z,25.03
2022-08-28T14:08:43.410Z,25.09
2022-08-28T14:11:12.748Z,25.32
2022-08-28T14:13:40.892Z,25.52
2022-08-28T14:16:16.875Z,25.59
2022-08-28T14:18:43.856Z,25.06
2022-08-28T14:21:10.722Z,24.83
2022-08-28T14:23:37.412Z,24.66
2022-08-28T14:26:05.175Z,24.38
2022-08-28T14:28:31.903Z,24.20
2022-08-28T14:30:58.614Z,24.04
2022-08-28T14:33:25.406Z,23.97
2022-08-28T14:35:52.145Z,23.86
2022-08-28T14:38:18.909Z,23.76
2022-08-28T14:40:45.740Z,23.83
2022-08-28T14:43:13.581Z,23.96
2022-08-28T14:45:45.922Z,24.26
2022-08-28T14:48:12.819Z,24.48
2022-08-28T14:50:41.304Z,24.47
2022-08-28T14:53:08.493Z,24.81
2022-08-28T14:55:44.079Z,24.66
2022-08-28T14:58:11.407Z,24.80
2022-08-28T15:00:50.040Z,24.78
2022-08-28T15:03:18.706Z,24.63
2022-08-28T15:05:45.809Z,24.56
2022-08-28T15:08:15.344Z,24.44
2022-08-28T15:10:42.950Z,24.31
2022-08-28T15:13:10.705Z,24.03
2022-08-28T15:15:42.302Z,24.06
2022-08-28T15:18:10.409Z,23.85
2022-08-28T15:20:46.830Z,23.79
2022-08-28T15:23:15.172Z,23.77
2022-08-28T15:25:42.744Z,23.92
2022-08-28T15:28:09.835Z,24.16
2022-08-28T15:30:36.979Z,24.36
2022-08-28T15:33:03.948Z,24.48
2022-08-28T15:35:30.728Z,24.49
2022-08-28T15:37:57.583Z,24.51
2022-08-28T15:40:42.750Z,24.38
2022-08-28T15:43:09.661Z,24.27
2022-08-28T15:45:37.780Z,24.27
2022-08-28T15:48:04.774Z,24.30
2022-08-28T15:50:31.768Z,24.19
2022-08-28T15:52:58.974Z,24.15
2022-08-28T15:55:26.250Z,23.96
2022-08-28T15:57:54.518Z,23.98
2022-08-28T16:00:21.723Z,24.00
2022-08-28T16:02:48.644Z,23.96
2022-08-28T16:05:15.999Z,23.98
2022-08-28T16:07:42.812Z,24.04
2022-08-28T16:10:13.261Z,24.18
2022-08-28T16:12:42.518Z,24.12
2022-08-28T16:15:12.121Z,24.23
2022-08-28T16:17:39.229Z,24.44
2022-08-28T16:20:11.054Z,24.69
2022-08-28T16:22:40.417Z,24.69
2022-08-28T16:25:11.335Z,24.69
2022-08-28T16:27:40.916Z,25.03
2022-08-28T16:30:15.639Z,25.06
2022-08-28T16:32:46.650Z,24.61
2022-08-28T16:35:15.419Z,24.37
2022-08-28T16:37:43.276Z,24.36
2022-08-28T16:40:16.857Z,25.11
2022-08-28T16:42:51.420Z,25.88
2022-08-28T16:45:20.966Z,26.85
2022-08-28T16:47:50.297Z,27.09
2022-08-28T16:50:18.121Z,26.85
2022-08-28T16:52:56.091Z,26.81
2022-08-28T16:55:23.967Z,26.99
2022-08-28T16:57:56.878Z,26.69
2022-08-28T17:00:27.445Z,26.05
2022-08-28T17:02:58.979Z,25.65
2022-08-28T17:05:28.438Z,25.31
2022-08-28T17:07:59.934Z,24.87
2022-08-28T17:10:30.449Z,24.56
2022-08-28T17:12:57.960Z,24.27
2022-08-28T17:15:26.871Z,24.13
2022-08-28T17:17:56.068Z,24.02
2022-08-28T17:20:43.894Z,23.75
2022-08-28T17:23:12.529Z,23.74
2022-08-28T17:25:49.538Z,23.68
2022-08-28T17:28:19.342Z,23.63
2022-08-28T17:30:49.478Z,23.61
2022-08-28T17:33:16.925Z,23.38
2022-08-28T17:35:46.092Z,23.27
2022-08-28T17:38:19.872Z,23.03
2022-08-28T17:40:49.141Z,22.99
2022-08-28T17:43:16.490Z,22.86
2022-08-28T17:45:45.199Z,22.70
2022-08-28T17:48:18.408Z,22.67
2022-08-28T17:50:48.508Z,22.57
2022-08-28T17:53:19.494Z,22.48
2022-08-28T17:55:52.258Z,22.33
2022-08-28T17:58:19.845Z,22.16
2022-08-28T18:00:47.102Z,22.02
2022-08-28T18:03:16.477Z,21.86
2022-08-28T18:05:43.664Z,21.71
2022-08-28T18:08:15.397Z,21.53
2022-08-28T18:10:42.630Z,21.39
2022-08-28T18:13:09.745Z,21.24
2022-08-28T18:15:37.033Z,21.08
2022-08-28T18:18:05.468Z,20.91
2022-08-28T18:20:33.203Z,20.78
2022-08-28T18:22:59.946Z,20.71
2022-08-28T18:25:41.835Z,20.63
2022-08-28T18:28:19.618Z,20.52
2022-08-28T18:30:51.126Z,20.45
2022-08-28T18:33:20.528Z,20.42
2022-08-28T18:35:49.458Z,20.34
2022-08-28T18:38:17.965Z,20.25
2022-08-28T18:40:45.547Z,20.20
2022-08-28T18:43:12.617Z,20.15
2022-08-28T18:45:40.059Z,20.10
2022-08-28T18:48:08.119Z,20.06
2022-08-28T18:50:35.623Z,19.98
2022-08-28T18:53:02.767Z,19.89
2022-08-28T18:55:31.545Z,19.83
2022-08-28T18:58:00.033Z,19.78
2022-08-28T19:00:27.382Z,19.75
2022-08-28T19:02:54.660Z,19.71
2022-08-28T19:05:21.964Z,19.68
2022-08-28T19:07:49.588Z,19.67
2022-08-28T19:10:32.657Z,19.66
2022-08-28T19:13:01.769Z,19.65
2022-08-28T19:15:29.253Z,19.64
2022-08-28T19:17:56.042Z,19.64
2022-08-28T19:20:23.315Z,19.61
2022-08-28T19:22:50.032Z,19.58
2022-08-28T19:25:27.743Z,19.55
2022-08-28T19:27:59.858Z,19.55
2022-08-28T19:30:29.207Z,19.56
2022-08-28T19:32:56.301Z,19.59
2022-08-28T19:35:24.258Z,19.60
2022-08-28T19:37:52.943Z,19.57
2022-08-28T19:40:21.197Z,19.51
2022-08-28T19:42:51.141Z,19.47
2022-08-28T19:45:18.995Z,19.40
2022-08-28T19:47:47.308Z,19.35
2022-08-28T19:50:14.885Z,19.35
2022-08-28T19:52:43.627Z,19.37
2022-08-28T19:55:21.650Z,19.42
2022-08-28T19:57:49.611Z,19.34
2022-08-28T20:00:18.878Z,19.27
2022-08-28T20:02:50.503Z,19.22
2022-08-28T20:05:17.879Z,19.16
2022-08-28T20:07:45.354Z,19.10
2022-08-28T20:10:13.541Z,19.07
2022-08-28T20:12:47.993Z,19.02
2022-08-28T20:15:17.574Z,18.96
2022-08-28T20:17:50.193Z,18.94
2022-08-28T20:20:19.712Z,18.91
2022-08-28T20:22:46.545Z,18.85
2022-08-28T20:25:14.863Z,18.84
2022-08-28T20:27:41.648Z,18.87
2022-08-28T20:30:10.687Z,18.83
2022-08-28T20:32:40.021Z,18.80
2022-08-28T20:35:10.298Z,18.81
2022-08-28T20:37:44.958Z,18.78
2022-08-28T20:40:18.344Z,18.78
2022-08-28T20:42:46.533Z,18.75
2022-08-28T20:45:15.545Z,18.75
2022-08-28T20:47:42.823Z,18.74
2022-08-28T20:50:10.541Z,18.70
2022-08-28T20:52:37.555Z,18.63
2022-08-28T20:55:07.597Z,18.61
2022-08-28T20:57:34.388Z,18.50
2022-08-28T21:00:04.930Z,18.44
2022-08-28T21:02:33.209Z,18.42
2022-08-28T21:05:00.128Z,18.35
2022-08-28T21:07:27.750Z,18.31
2022-08-28T21:10:05.657Z,18.29
2022-08-28T21:12:33.514Z,18.26
2022-08-28T21:15:00.523Z,18.30
2022-08-28T21:17:30.130Z,18.30
2022-08-28T21:20:11.869Z,18.25
2022-08-28T21:22:39.747Z,18.21
2022-08-28T21:25:08.296Z,18.20
2022-08-28T21:27:35.143Z,18.18
2022-08-28T21:30:02.366Z,18.12
2022-08-28T21:32:30.670Z,18.07
2022-08-28T21:34:57.441Z,18.05
2022-08-28T21:37:27.841Z,18.04
2022-08-28T21:39:56.512Z,18.05
2022-08-28T21:42:23.746Z,17.95
2022-08-28T21:44:51.874Z,17.91
2022-08-28T21:47:20.150Z,17.92
2022-08-28T21:49:51.528Z,17.85
2022-08-28T21:52:19.276Z,17.77
2022-08-28T21:54:46.206Z,17.77
2022-08-28T21:57:12.953Z,17.77
2022-08-28T21:59:39.643Z,17.71
2022-08-28T22:02:06.491Z,17.65
2022-08-28T22:04:33.435Z,17.63
2022-08-28T22:07:00.201Z,17.62
2022-08-28T22:09:26.914Z,17.61
2022-08-28T22:11:54.044Z,17.59
2022-08-28T22:14:21.122Z,17.54
2022-08-28T22:16:47.960Z,17.47
2022-08-28T22:19:14.691Z,17.45
2022-08-28T22:21:59.813Z,17.40
2022-08-28T22:24:26.501Z,17.37
2022-08-28T22:26:57.754Z,17.34
2022-08-28T22:29:25.061Z,17.30
2022-08-28T22:31:52.638Z,17.28
2022-08-28T22:34:19.439Z,17.24
2022-08-28T22:36:46.109Z,17.24
2022-08-28T22:39:12.793Z,17.23
2022-08-28T22:41:40.392Z,17.20
2022-08-28T22:44:07.310Z,17.23
2022-08-28T22:46:37.396Z,17.23
2022-08-28T22:49:04.906Z,17.21
2022-08-28T22:51:35.146Z,17.18
2022-08-28T22:54:02.042Z,17.23
2022-08-28T22:56:28.803Z,17.20
2022-08-28T22:58:55.522Z,17.19
2022-08-28T23:01:24.373Z,17.15
2022-08-28T23:03:51.267Z,17.15
2022-08-28T23:06:18.110Z,17.08
2022-08-28T23:08:44.749Z,17.06
2022-08-28T23:11:11.594Z,17.07
2022-08-28T23:13:38.984Z,17.00
2022-08-28T23:16:05.883Z,16.97
2022-08-28T23:18:51.954Z,16.96
2022-08-28T23:21:23.890Z,16.95
2022-08-28T23:23:53.274Z,16.94
2022-08-28T23:26:20.082Z,16.98
2022-08-28T23:28:47.238Z,17.01
2022-08-28T23:31:14.031Z,16.96
2022-08-28T23:33:40.883Z,16.78
2022-08-28T23:36:08.013Z,16.76
2022-08-28T23:38:37.572Z,16.68
2022-08-28T23:41:07.923Z,16.80
2022-08-28T23:43:34.898Z,16.66
2022-08-28T23:46:01.886Z,16.53
2022-08-28T23:48:29.286Z,16.49
2022-08-28T23:50:56.225Z,16.54
2022-08-28T23:53:22.910Z,16.46
2022-08-28T23:55:50.087Z,16.45
2022-08-28T23:58:18.339Z,16.49
